createdAt,value
2017-12-06T00:01:42.670Z,8.90
2017-12-06T00:04:08.440Z,10.20
2017-12-06T00:06:34.227Z,10.63
2017-12-06T00:08:59.965Z,7.57
2017-12-06T00:11:25.715Z,6.37
2017-12-06T00:13:57.562Z,10.30
2017-12-06T00:16:23.311Z,10.20
2017-12-06T00:18:49.076Z,7.87
2017-12-06T00:21:14.848Z,9.73
2017-12-06T00:23:40.612Z,6.83
2017-12-06T00:26:06.408Z,7.50
2017-12-06T00:28:32.159Z,11.23
2017-12-06T00:30:57.924Z,8.17
2017-12-06T00:33:23.690Z,4.70
2017-12-06T00:35:49.454Z,7.97
2017-12-06T00:38:15.211Z,11.83
2017-12-06T00:40:40.986Z,10.50
2017-12-06T00:43:06.749Z,11.47
2017-12-06T00:45:32.531Z,12.23
2017-12-06T00:47:58.284Z,18.03
2017-12-06T00:50:24.042Z,10.07
2017-12-06T00:52:49.855Z,8.17
2017-12-06T00:55:15.587Z,9.83
2017-12-06T00:57:41.349Z,9.20
2017-12-06T01:00:07.123Z,8.50
2017-12-06T01:02:32.888Z,12.43
2017-12-06T01:04:58.641Z,11.77
2017-12-06T01:07:24.403Z,11.57
2017-12-06T01:09:50.158Z,11.10
2017-12-06T01:12:16.537Z,15.97
2017-12-06T01:14:42.710Z,13.25
2017-12-06T01:17:08.517Z,11.52
2017-12-06T01:19:34.256Z,11.43
2017-12-06T01:22:00.031Z,9.43
2017-12-06T01:24:25.796Z,10.33
2017-12-06T01:26:51.571Z,9.63
2017-12-06T01:29:17.319Z,11.03
2017-12-06T01:31:43.075Z,12.57
2017-12-06T01:34:08.831Z,16.20
2017-12-06T01:36:34.593Z,10.13
2017-12-06T01:39:00.372Z,16.80
2017-12-06T01:41:26.122Z,9.97
2017-12-06T01:43:51.904Z,10.07
2017-12-06T01:46:17.652Z,10.20
2017-12-06T01:48:43.407Z,10.70
2017-12-06T01:51:09.173Z,10.53
2017-12-06T01:53:34.926Z,8.57
2017-12-06T01:56:00.687Z,12.40
2017-12-06T01:58:27.977Z,10.57
2017-12-06T02:00:53.759Z,14.55
2017-12-06T02:03:19.515Z,9.80
2017-12-06T02:05:45.298Z,11.67
2017-12-06T02:08:11.051Z,13.53
2017-12-06T02:10:36.821Z,12.17
2017-12-06T02:13:02.590Z,14.43
2017-12-06T02:15:28.376Z,13.13
2017-12-06T02:17:54.145Z,14.90
2017-12-06T02:20:19.921Z,12.07
2017-12-06T02:22:45.675Z,11.50
2017-12-06T02:25:11.460Z,8.83
2017-12-06T02:27:37.224Z,13.27
2017-12-06T02:30:02.985Z,15.13
2017-12-06T02:32:28.741Z,13.13
2017-12-06T02:34:54.506Z,16.10
2017-12-06T02:37:20.260Z,17.23
2017-12-06T02:39:58.430Z,23.67
2017-12-06T02:42:36.661Z,22.85
2017-12-06T02:45:14.862Z,24.17
2017-12-06T02:47:40.617Z,23.55
2017-12-06T02:50:06.400Z,22.87
2017-12-06T02:52:32.192Z,25.23
2017-12-06T02:54:57.933Z,29.57
2017-12-06T02:57:23.683Z,31.67
2017-12-06T02:59:49.465Z,30.10
2017-12-06T03:02:15.225Z,25.10
2017-12-06T03:04:40.995Z,23.97
2017-12-06T03:07:06.758Z,29.03
2017-12-06T03:09:32.524Z,20.13
2017-12-06T03:11:58.283Z,20.60
2017-12-06T03:14:24.052Z,26.60
2017-12-06T03:16:49.807Z,25.47
2017-12-06T03:19:15.576Z,26.13
2017-12-06T03:21:41.329Z,23.67
2017-12-06T03:24:07.075Z,19.13
2017-12-06T03:26:32.847Z,17.00
2017-12-06T03:28:58.606Z,26.90
2017-12-06T03:31:24.371Z,24.93
2017-12-06T03:33:50.128Z,24.40
2017-12-06T03:36:15.894Z,27.27
2017-12-06T03:38:41.647Z,26.60
2017-12-06T03:41:07.408Z,28.17
2017-12-06T03:43:33.169Z,28.57
2017-12-06T03:45:58.941Z,25.00
2017-12-06T03:48:24.716Z,29.03
2017-12-06T03:50:50.479Z,30.30
2017-12-06T03:53:16.243Z,27.00
2017-12-06T03:55:41.989Z,31.40
2017-12-06T03:58:07.768Z,34.67
2017-12-06T04:00:33.500Z,27.63
2017-12-06T04:02:59.261Z,35.60
2017-12-06T04:05:25.081Z,41.43
2017-12-06T04:07:50.802Z,35.40
2017-12-06T04:10:16.547Z,34.40
2017-12-06T04:12:42.306Z,33.07
2017-12-06T04:15:08.084Z,33.70
2017-12-06T04:17:33.852Z,35.67
2017-12-06T04:19:59.620Z,33.33
2017-12-06T04:22:25.395Z,25.80
2017-12-06T04:24:51.164Z,38.07
2017-12-06T04:27:16.933Z,34.40
2017-12-06T04:29:42.696Z,35.13
2017-12-06T04:32:08.473Z,35.97
2017-12-06T04:34:34.254Z,34.13
2017-12-06T04:37:00.023Z,34.80
2017-12-06T04:39:25.805Z,32.93
2017-12-06T04:41:51.576Z,33.00
2017-12-06T04:44:17.341Z,42.70
2017-12-06T04:46:43.103Z,38.97
2017-12-06T04:49:08.889Z,36.57
2017-12-06T04:51:34.663Z,42.50
2017-12-06T04:54:00.423Z,40.07
2017-12-06T04:56:26.202Z,37.10
2017-12-06T04:58:51.975Z,41.33
2017-12-06T05:01:17.738Z,44.40
2017-12-06T05:03:43.523Z,39.17
2017-12-06T05:06:09.272Z,38.40
2017-12-06T05:08:35.048Z,46.30
2017-12-06T05:11:00.796Z,44.07
2017-12-06T05:13:26.568Z,46.90
2017-12-06T05:15:52.360Z,38.20
2017-12-06T05:18:18.106Z,41.40
2017-12-06T05:20:43.883Z,38.57
2017-12-06T05:23:09.622Z,36.10
2017-12-06T05:25:35.424Z,35.00
2017-12-06T05:28:01.191Z,37.97
2017-12-06T05:30:26.976Z,38.00
2017-12-06T05:32:52.734Z,39.33
2017-12-06T05:35:18.509Z,38.40
2017-12-06T05:37:44.265Z,35.90
2017-12-06T05:40:10.039Z,36.30
2017-12-06T05:42:35.807Z,34.27
2017-12-06T05:45:01.563Z,35.43
2017-12-06T05:47:27.318Z,37.93
2017-12-06T05:49:53.095Z,33.40
2017-12-06T05:52:25.939Z,42.00
2017-12-06T05:54:51.703Z,31.75
2017-12-06T05:57:17.455Z,26.57
2017-12-06T05:59:43.251Z,32.30
2017-12-06T06:02:09.015Z,31.43
2017-12-06T06:04:34.792Z,32.97
2017-12-06T06:07:00.547Z,36.27
2017-12-06T06:09:26.326Z,28.80
2017-12-06T06:11:52.087Z,29.83
2017-12-06T06:14:17.856Z,30.80
2017-12-06T06:16:43.624Z,34.90
2017-12-06T06:19:09.383Z,31.80
2017-12-06T06:21:35.155Z,29.23
2017-12-06T06:24:00.931Z,32.80
2017-12-06T06:26:26.704Z,32.97
2017-12-06T06:28:52.467Z,35.83
2017-12-06T06:31:18.235Z,30.47
2017-12-06T06:33:43.986Z,36.57
2017-12-06T06:36:09.761Z,38.90
2017-12-06T06:38:35.521Z,45.53
2017-12-06T06:41:01.308Z,44.53
2017-12-06T06:43:27.047Z,37.87
2017-12-06T06:45:52.818Z,45.13
2017-12-06T06:48:18.576Z,46.43
2017-12-06T06:50:44.327Z,37.87
2017-12-06T06:53:10.111Z,47.27
2017-12-06T06:55:35.846Z,37.57
2017-12-06T06:58:01.617Z,40.70
2017-12-06T07:00:27.380Z,36.87
2017-12-06T07:02:53.157Z,43.57
2017-12-06T07:05:18.907Z,40.83
2017-12-06T07:07:44.684Z,35.03
2017-12-06T07:10:10.433Z,41.93
2017-12-06T07:12:36.195Z,32.93
2017-12-06T07:15:01.976Z,29.60
2017-12-06T07:17:27.741Z,41.63
2017-12-06T07:19:53.518Z,30.70
2017-12-06T07:22:19.281Z,34.03
2017-12-06T07:24:45.035Z,34.47
2017-12-06T07:27:10.821Z,38.63
2017-12-06T07:29:36.572Z,31.77
2017-12-06T07:32:02.364Z,37.10
2017-12-06T07:34:28.134Z,34.50
2017-12-06T07:36:53.911Z,35.47
2017-12-06T07:39:19.683Z,44.57
2017-12-06T07:41:45.447Z,39.83
2017-12-06T07:44:11.223Z,32.70
2017-12-06T07:46:36.967Z,34.97
2017-12-06T07:49:02.753Z,32.20
2017-12-06T07:51:28.500Z,33.00
2017-12-06T07:53:54.271Z,32.53
2017-12-06T07:56:20.038Z,28.33
2017-12-06T07:58:45.875Z,32.33
2017-12-06T08:01:11.631Z,33.20
2017-12-06T08:03:37.424Z,23.67
2017-12-06T08:06:03.174Z,26.97
2017-12-06T08:08:28.939Z,26.43
2017-12-06T08:10:54.688Z,30.37
2017-12-06T08:13:20.468Z,25.10
2017-12-06T08:15:46.220Z,27.50
2017-12-06T08:18:12.009Z,30.80
2017-12-06T08:20:37.777Z,27.83
2017-12-06T08:23:03.552Z,29.57
2017-12-06T08:25:29.327Z,33.07
2017-12-06T08:27:55.089Z,32.13
2017-12-06T08:30:20.876Z,25.83
2017-12-06T08:32:46.628Z,24.67
2017-12-06T08:35:12.415Z,23.87
2017-12-06T08:37:38.186Z,31.33
2017-12-06T08:40:03.960Z,26.33
2017-12-06T08:42:29.741Z,31.30
2017-12-06T08:44:55.523Z,31.23
2017-12-06T08:47:21.303Z,29.43
2017-12-06T08:49:47.072Z,23.83
2017-12-06T08:52:12.836Z,32.07
2017-12-06T08:54:38.609Z,31.17
2017-12-06T08:57:04.381Z,29.57
2017-12-06T08:59:30.157Z,24.07
2017-12-06T09:01:55.912Z,27.67
2017-12-06T09:04:21.697Z,22.47
2017-12-06T09:06:47.468Z,27.30
2017-12-06T09:09:13.240Z,35.47
2017-12-06T09:11:39.012Z,20.87
2017-12-06T09:14:04.782Z,21.17
2017-12-06T09:16:30.563Z,33.47
2017-12-06T09:18:56.316Z,25.57
2017-12-06T09:21:22.071Z,21.80
2017-12-06T09:23:47.836Z,30.30
2017-12-06T09:26:13.621Z,26.70
2017-12-06T09:28:39.377Z,26.43
2017-12-06T09:31:05.144Z,24.67
2017-12-06T09:33:30.905Z,21.70
2017-12-06T09:35:56.669Z,23.47
2017-12-06T09:38:22.426Z,19.13
2017-12-06T09:40:48.183Z,21.47
2017-12-06T09:43:13.972Z,22.43
2017-12-06T09:45:39.760Z,25.73
2017-12-06T09:48:05.523Z,19.57
2017-12-06T09:50:31.280Z,24.70
2017-12-06T09:52:57.062Z,20.10
2017-12-06T09:55:22.822Z,18.20
2017-12-06T09:57:48.595Z,19.97
2017-12-06T10:00:14.353Z,20.23
2017-12-06T10:02:40.123Z,21.93
2017-12-06T10:05:12.935Z,28.77
2017-12-06T10:07:38.708Z,27.60
2017-12-06T10:10:04.476Z,22.20
2017-12-06T10:12:30.247Z,24.03
2017-12-06T10:14:56.012Z,23.27
2017-12-06T10:17:21.784Z,20.33
2017-12-06T10:19:47.555Z,21.53
2017-12-06T10:22:13.322Z,20.70
2017-12-06T10:24:39.100Z,18.97
2017-12-06T10:27:04.876Z,24.27
2017-12-06T10:29:30.644Z,23.47
2017-12-06T10:31:56.420Z,29.37
2017-12-06T10:34:22.189Z,20.30
2017-12-06T10:36:47.943Z,16.77
2017-12-06T10:39:13.711Z,23.17
2017-12-06T10:41:39.494Z,16.90
2017-12-06T10:44:05.275Z,21.83
2017-12-06T10:46:31.015Z,21.07
2017-12-06T10:48:56.791Z,26.13
2017-12-06T10:51:22.552Z,18.13
2017-12-06T10:53:48.335Z,19.50
2017-12-06T10:56:14.105Z,23.47
2017-12-06T10:58:39.871Z,18.40
2017-12-06T11:01:05.642Z,22.43
2017-12-06T11:03:31.405Z,15.53
2017-12-06T11:05:57.228Z,21.03
2017-12-06T11:08:22.962Z,20.57
2017-12-06T11:10:48.726Z,17.10
2017-12-06T11:13:14.508Z,18.00
2017-12-06T11:15:40.281Z,20.10
2017-12-06T11:18:06.036Z,16.63
2017-12-06T11:20:31.812Z,20.40
2017-12-06T11:22:57.572Z,23.43
2017-12-06T11:25:23.344Z,17.57
2017-12-06T11:27:49.099Z,14.47
2017-12-06T11:30:14.883Z,21.00
2017-12-06T11:32:40.640Z,16.67
2017-12-06T11:35:06.435Z,21.23
2017-12-06T11:37:32.193Z,20.57
2017-12-06T11:39:57.968Z,17.90
2017-12-06T11:42:23.736Z,18.90
2017-12-06T11:44:49.510Z,25.10
2017-12-06T11:47:15.338Z,24.50
2017-12-06T11:49:41.099Z,16.50
2017-12-06T11:52:06.863Z,18.37
2017-12-06T11:54:32.632Z,15.23
2017-12-06T11:56:58.405Z,17.97
2017-12-06T11:59:24.162Z,20.10
2017-12-06T12:01:49.939Z,20.17
2017-12-06T12:04:15.693Z,21.83
2017-12-06T12:06:41.463Z,17.43
2017-12-06T12:09:07.224Z,23.60
2017-12-06T12:11:33.018Z,16.73
2017-12-06T12:13:58.764Z,17.40
2017-12-06T12:16:24.533Z,22.33
2017-12-06T12:18:50.325Z,13.80
2017-12-06T12:21:16.092Z,18.97
2017-12-06T12:23:41.873Z,17.80
2017-12-06T12:26:07.639Z,21.70
2017-12-06T12:28:33.416Z,18.83
2017-12-06T12:30:59.172Z,20.10
2017-12-06T12:33:24.958Z,17.93
2017-12-06T12:35:50.715Z,21.40
2017-12-06T12:38:16.518Z,21.37
2017-12-06T12:40:42.272Z,23.10
2017-12-06T12:43:08.056Z,25.03
2017-12-06T12:45:33.811Z,23.23
2017-12-06T12:47:59.591Z,24.27
2017-12-06T12:50:25.366Z,23.10
2017-12-06T12:52:51.138Z,20.27
2017-12-06T12:55:16.924Z,19.23
2017-12-06T12:57:42.687Z,16.70
2017-12-06T13:00:08.462Z,22.93
2017-12-06T13:02:34.223Z,23.37
2017-12-06T13:05:00.004Z,21.63
2017-12-06T13:07:25.776Z,22.00
2017-12-06T13:09:51.561Z,19.73
2017-12-06T13:12:17.333Z,20.97
2017-12-06T13:14:43.130Z,19.03
2017-12-06T13:17:08.933Z,22.73
2017-12-06T13:19:34.733Z,17.83
2017-12-06T13:22:00.493Z,29.03
2017-12-06T13:24:26.288Z,22.03
2017-12-06T13:26:52.088Z,17.03
2017-12-06T13:29:17.852Z,21.90
2017-12-06T13:31:43.629Z,17.60
2017-12-06T13:34:09.387Z,16.93
2017-12-06T13:36:35.185Z,15.40
2017-12-06T13:39:00.962Z,22.03
2017-12-06T13:41:26.748Z,18.17
2017-12-06T13:43:52.548Z,17.03
2017-12-06T13:46:18.321Z,21.10
2017-12-06T13:48:44.087Z,22.27
2017-12-06T13:51:09.895Z,18.07
2017-12-06T13:53:35.659Z,15.37
2017-12-06T13:56:01.443Z,15.83
2017-12-06T13:58:27.233Z,19.23
2017-12-06T14:00:53.016Z,15.90
2017-12-06T14:03:18.785Z,13.83
2017-12-06T14:05:44.576Z,19.27
2017-12-06T14:08:10.333Z,14.30
2017-12-06T14:10:36.116Z,20.93
2017-12-06T14:13:01.902Z,15.97
2017-12-06T14:15:27.688Z,18.43
2017-12-06T14:17:53.468Z,18.10
2017-12-06T14:20:19.223Z,14.83
2017-12-06T14:22:45.027Z,15.70
2017-12-06T14:25:10.805Z,20.73
2017-12-06T14:27:36.612Z,16.73
2017-12-06T14:30:02.380Z,17.67
2017-12-06T14:32:28.165Z,16.30
2017-12-06T14:34:53.943Z,14.67
2017-12-06T14:37:19.719Z,12.63
2017-12-06T14:39:45.484Z,19.63
2017-12-06T14:42:11.252Z,18.60
2017-12-06T14:44:37.032Z,15.97
2017-12-06T14:47:02.795Z,13.07
2017-12-06T14:49:28.576Z,16.90
2017-12-06T14:51:54.351Z,15.83
2017-12-06T14:54:20.127Z,13.63
2017-12-06T14:56:45.924Z,12.00
2017-12-06T14:59:11.700Z,12.17
2017-12-06T15:01:37.469Z,15.13
2017-12-06T15:04:03.244Z,17.93
2017-12-06T15:06:29.017Z,16.80
2017-12-06T15:08:54.796Z,17.47
2017-12-06T15:11:20.562Z,16.60
2017-12-06T15:13:46.349Z,8.77
2017-12-06T15:16:12.150Z,17.27
2017-12-06T15:18:37.948Z,15.77
2017-12-06T15:21:03.715Z,17.00
2017-12-06T15:23:29.489Z,12.13
2017-12-06T15:25:55.284Z,13.33
2017-12-06T15:28:21.072Z,10.53
2017-12-06T15:30:46.844Z,13.43
2017-12-06T15:33:12.639Z,11.57
2017-12-06T15:35:38.425Z,6.17
2017-12-06T15:38:04.199Z,10.73
2017-12-06T15:40:30.008Z,13.33
2017-12-06T15:42:55.784Z,11.83
2017-12-06T15:45:22.372Z,12.77
2017-12-06T15:47:48.152Z,13.82
2017-12-06T16:00:53.606Z,12.37
2017-12-06T16:03:19.574Z,17.27
2017-12-06T16:05:45.379Z,10.40
2017-12-06T16:08:11.170Z,11.83
2017-12-06T16:10:36.935Z,9.93
2017-12-06T16:13:02.744Z,12.93
2017-12-06T16:15:28.535Z,8.40
2017-12-06T16:17:54.331Z,15.57
2017-12-06T16:20:20.139Z,11.87
2017-12-06T16:22:45.939Z,11.40
2017-12-06T16:25:11.700Z,9.23
2017-12-06T16:27:37.467Z,10.47
2017-12-06T16:30:03.223Z,10.43
2017-12-06T16:32:28.997Z,9.27
2017-12-06T16:35:07.281Z,12.00
2017-12-06T16:37:33.034Z,9.20
2017-12-06T16:39:58.821Z,12.03
2017-12-06T16:42:24.595Z,11.47
2017-12-06T16:44:50.358Z,13.93
2017-12-06T16:47:16.123Z,7.40
2017-12-06T16:49:41.931Z,13.50
2017-12-06T16:52:07.696Z,9.10
2017-12-06T16:54:33.508Z,13.70
2017-12-06T16:56:59.268Z,8.67
2017-12-06T16:59:25.031Z,12.53
2017-12-06T17:01:50.800Z,10.07
2017-12-06T17:04:16.562Z,13.23
2017-12-06T17:06:42.360Z,10.73
2017-12-06T17:09:08.099Z,7.13
2017-12-06T17:11:33.861Z,13.97
2017-12-06T17:13:59.635Z,10.30
2017-12-06T17:16:25.395Z,8.03
2017-12-06T17:18:51.196Z,13.30
2017-12-06T17:21:16.976Z,12.97
2017-12-06T17:23:42.759Z,10.53
2017-12-06T17:26:08.563Z,8.33
2017-12-06T17:28:46.795Z,10.10
2017-12-06T17:31:25.020Z,9.88
2017-12-06T17:33:50.806Z,10.55
2017-12-06T17:36:16.580Z,10.47
2017-12-06T17:38:42.348Z,11.73
2017-12-06T17:41:08.127Z,10.63
2017-12-06T17:43:33.909Z,10.73
2017-12-06T17:45:59.676Z,8.87
2017-12-06T17:48:25.475Z,10.50
2017-12-06T17:50:51.220Z,7.93
2017-12-06T17:53:16.996Z,9.73
2017-12-06T17:55:42.759Z,7.07
2017-12-06T17:58:08.563Z,8.90
2017-12-06T18:00:34.319Z,11.10
2017-12-06T18:03:00.057Z,6.90
2017-12-06T18:05:25.851Z,9.27
2017-12-06T18:07:51.621Z,5.93
2017-12-06T18:10:17.396Z,7.17
2017-12-06T18:12:43.291Z,8.27
2017-12-06T18:15:10.302Z,6.40
2017-12-06T18:17:37.476Z,8.07
2017-12-06T18:20:03.262Z,6.30
2017-12-06T18:22:29.172Z,6.80
2017-12-06T18:24:55.216Z,6.00
2017-12-06T18:27:21.063Z,6.90
2017-12-06T18:29:46.887Z,8.33
2017-12-06T18:32:12.966Z,5.70
2017-12-06T18:34:38.788Z,4.85
2017-12-06T18:37:04.539Z,6.93
2017-12-06T18:39:30.399Z,9.03
2017-12-06T18:41:56.196Z,5.37
2017-12-06T18:44:21.991Z,3.63
2017-12-06T18:46:47.999Z,3.37
2017-12-06T18:49:13.772Z,6.28
2017-12-06T18:51:39.864Z,5.63
2017-12-06T18:54:05.651Z,6.97
2017-12-06T18:56:32.733Z,7.33
2017-12-06T18:58:58.566Z,6.75
2017-12-06T19:01:24.607Z,5.43
2017-12-06T19:03:50.364Z,7.50
2017-12-06T19:06:16.128Z,5.90
2017-12-06T19:08:41.883Z,8.30
2017-12-06T19:11:07.646Z,7.53
2017-12-06T19:13:33.407Z,5.43
2017-12-06T19:15:59.166Z,4.53
2017-12-06T19:18:24.908Z,7.83
2017-12-06T19:20:50.654Z,6.90
2017-12-06T19:23:16.419Z,9.17
2017-12-06T19:25:42.183Z,8.40
2017-12-06T19:28:07.960Z,4.53
2017-12-06T19:30:33.714Z,8.20
2017-12-06T19:32:59.484Z,4.57
2017-12-06T19:35:25.243Z,5.27
2017-12-06T19:37:51.015Z,6.43
2017-12-06T19:40:16.792Z,4.27
2017-12-06T19:42:42.569Z,4.77
2017-12-06T19:45:08.360Z,5.00
2017-12-06T19:47:34.130Z,5.07
2017-12-06T19:49:59.887Z,6.73
2017-12-06T19:52:25.650Z,4.67
2017-12-06T19:54:51.411Z,4.30
2017-12-06T19:57:17.200Z,6.80
2017-12-06T19:59:42.936Z,6.50
2017-12-06T20:02:08.684Z,3.90
2017-12-06T20:04:34.452Z,4.07
2017-12-06T20:07:00.219Z,5.00
2017-12-06T20:09:25.996Z,5.23
2017-12-06T20:11:51.758Z,7.07
2017-12-06T20:14:17.569Z,5.23
2017-12-06T20:16:43.318Z,5.50
2017-12-06T20:19:09.105Z,4.77
2017-12-06T20:21:34.859Z,5.17
2017-12-06T20:24:00.627Z,4.83
2017-12-06T20:26:26.424Z,4.83
2017-12-06T20:28:52.188Z,5.43
2017-12-06T20:31:17.940Z,3.60
2017-12-06T20:33:50.794Z,4.80
2017-12-06T20:36:16.570Z,4.47
2017-12-06T20:38:42.339Z,6.50
2017-12-06T20:41:08.116Z,4.77
2017-12-06T20:43:33.895Z,5.03
2017-12-06T20:45:59.673Z,4.07
2017-12-06T20:48:25.428Z,4.07
2017-12-06T20:50:51.195Z,5.30
2017-12-06T20:53:16.967Z,5.07
2017-12-06T20:55:42.862Z,6.30
2017-12-06T20:58:08.608Z,5.50
2017-12-06T21:00:34.379Z,3.50
2017-12-06T21:03:00.152Z,3.00
2017-12-06T21:05:25.927Z,3.37
2017-12-06T21:07:51.701Z,3.40
2017-12-06T21:10:17.484Z,6.57
2017-12-06T21:12:43.256Z,5.07
2017-12-06T21:15:09.039Z,4.27
2017-12-06T21:17:34.895Z,5.43
2017-12-06T21:20:00.623Z,2.60
2017-12-06T21:22:26.504Z,5.63
2017-12-06T21:24:52.275Z,4.40
2017-12-06T21:27:18.083Z,4.90
2017-12-06T21:29:43.847Z,5.43
2017-12-06T21:32:09.733Z,3.47
2017-12-06T21:34:35.487Z,7.07
2017-12-06T21:37:01.263Z,4.77
2017-12-06T21:39:27.255Z,6.23
2017-12-06T21:41:53.137Z,9.90
2017-12-06T21:44:18.887Z,5.03
2017-12-06T21:46:45.724Z,5.40
2017-12-06T21:49:11.494Z,6.10
2017-12-06T21:51:37.260Z,9.03
2017-12-06T21:54:03.129Z,8.40
2017-12-06T21:56:28.887Z,8.80
2017-12-06T21:58:54.721Z,9.30
2017-12-06T22:01:20.723Z,10.03
2017-12-06T22:03:46.518Z,11.88
2017-12-06T22:06:12.292Z,14.33
2017-12-06T22:08:38.059Z,12.93
2017-12-06T22:11:03.827Z,12.10
2017-12-06T22:13:29.587Z,11.00
2017-12-06T22:15:55.328Z,10.57
2017-12-06T22:18:21.082Z,11.73
2017-12-06T22:20:46.832Z,9.53
2017-12-06T22:23:13.068Z,9.23
2017-12-06T22:25:38.824Z,9.02
2017-12-06T22:28:04.598Z,12.60
2017-12-06T22:30:30.888Z,12.47
2017-12-06T22:32:56.706Z,12.75
2017-12-06T22:35:22.450Z,14.43
2017-12-06T22:37:48.211Z,11.70
2017-12-06T22:40:13.972Z,16.73
2017-12-06T22:42:39.735Z,15.47
2017-12-06T22:45:14.616Z,17.37
2017-12-06T22:47:40.371Z,14.75
2017-12-06T22:50:06.124Z,19.13
2017-12-06T22:52:31.900Z,17.50
2017-12-06T22:54:58.107Z,20.03
2017-12-06T22:57:23.883Z,22.80
2017-12-06T22:59:49.655Z,22.70
2017-12-06T23:02:15.438Z,21.93
2017-12-06T23:04:41.208Z,21.07
2017-12-06T23:07:06.965Z,24.37
2017-12-06T23:09:33.541Z,20.60
2017-12-06T23:11:59.491Z,24.08
2017-12-06T23:14:25.267Z,22.97
2017-12-06T23:16:51.028Z,21.67
2017-12-06T23:19:16.795Z,22.33
2017-12-06T23:21:42.571Z,24.17
2017-12-06T23:24:08.335Z,23.33
2017-12-06T23:26:34.098Z,23.33
2017-12-06T23:28:59.871Z,24.93
2017-12-06T23:31:25.626Z,22.73
2017-12-06T23:33:51.395Z,25.20
2017-12-06T23:36:17.184Z,23.70
2017-12-06T23:38:42.962Z,24.27
2017-12-06T23:41:08.736Z,24.20
2017-12-06T23:43:34.492Z,23.40
2017-12-06T23:46:00.267Z,24.37
2017-12-06T23:48:26.024Z,23.90
2017-12-06T23:50:51.796Z,23.50
2017-12-06T23:53:17.558Z,26.20
2017-12-06T23:55:43.323Z,24.20
2017-12-06T23:58:09.074Z,24.20
